M I D A S
Marine Information and Data Acquisition System
Tripno 2164 of the Zeeleeuw from 2011-08-16 06:28:40 to 2011-08-16 14:17:33
Back to CruiseResearch ActivitiesStationsMapUnderway DataData graphs

EquipmentUnitsComment
TimeDGPSUTC
LatitudeDGPSDM.mWGS84
LongitudeDGPSDM.mWGS84
TemperatureSBE03/SBE38deg celciusITS90
ConductivitySBE21S/mITS90
SalinitySBE21 Practical Salinity Units
ChlorophylAChelsea fluorimeterg/lCalibrated in Aceton
Missing or incorrect values are displayed as -999
Sea surface data collected by the RV Zeeleeuw from 2011-08-16 06:30:26 to 2011-08-16 14:30:31
Time Latitude Longitude Temperature Conductivity Salinity ChlorophylA
2011-08-16 06:31:31 51°13.648 2°55.983 21.4249 0.074993 0.375708 -3.020363
2011-08-16 06:32:31 51°13.661 2°55.935 21.433 0.074993 0.375731 -3.020363
2011-08-16 06:33:31 51°13.672 2°55.851 21.436 0.074993 0.375755 -3.020363
2011-08-16 06:34:31 51°13.68 2°55.761 21.434 0.074993 0.375778 -3.020363
2011-08-16 06:35:30 51°13.701 2°55.775 21.4283 0.074993 0.375825 -3.020363
2011-08-16 06:36:31 51°13.716 2°55.781 21.4594 0.074993 0.37582 -3.020363
2011-08-16 06:37:31 51°13.727 2°55.768 21.4947 0.074993 0.375843 -3.020363
2011-08-16 06:38:31 51°13.791 2°55.674 21.4058 0.074993 0.375855 -3.020363
2011-08-16 06:39:31 51°13.878 2°55.596 21.4615 0.074993 0.375873 -3.020363
2011-08-16 06:40:31 51°13.976 2°55.527 21.4633 0.074993 0.37589 -3.020363
2011-08-16 06:41:31 51°14.082 2°55.452 21.4463 0.074993 0.375914 -3.020363
2011-08-16 06:42:30 51°14.19 2°55.37 21.4785 0.074993 0.375937 -3.020363
2011-08-16 06:43:30 51°14.296 2°55.276 21.4755 0.074993 0.375961 -3.020363
2011-08-16 06:44:29 51°14.399 2°55.177 21.5041 0.074993 0.375991 -3.020363
2011-08-16 06:45:28 51°14.499 2°55.071 21.4961 0.074993 0.376026 -3.020363
2011-08-16 06:46:27 51°14.61 2°54.921 21.4609 0.074993 0.376055 -3.020363
2011-08-16 06:47:27 51°14.744 2°54.748 20.1848 0.074993 0.376085 -3.020363
2011-08-16 06:48:27 51°14.906 2°54.55 18.8841 4.133417 29.808722 -3.020363
2011-08-16 06:49:27 51°15.074 2°54.343 18.7209 4.362778 32.217966 -3.020363
2011-08-16 06:50:27 51°15.239 2°54.128 18.6224 4.425632 32.869608 -3.020363
2011-08-16 06:51:27 51°15.411 2°53.927 18.554 4.465153 33.279037 -3.020363
2011-08-16 06:52:27 51°15.584 2°53.726 18.4877 4.492851 33.579885 -3.020363
2011-08-16 06:53:27 51°15.768 2°53.553 18.4448 4.487977 33.587234 -3.020363
2011-08-16 06:54:27 51°15.959 2°53.408 18.4149 4.499803 33.719227 -3.020363
2011-08-16 06:55:27 51°16.143 2°53.236 18.3974 4.50302 33.772092 -3.020363
2011-08-16 06:56:27 51°16.33 2°53.079 18.3838 4.503331 33.792853 -3.020363
2011-08-16 06:57:27 51°16.523 2°52.943 18.3912 4.504784 33.810245 -3.020363
2011-08-16 06:58:27 51°16.712 2°52.787 18.3811 4.501983 33.791253 -3.020363
2011-08-16 06:59:27 51°16.896 2°52.632 18.3649 4.400952 32.947753 -3.020363
2011-08-16 07:00:27 51°17.09 2°52.518 18.3499 4.471692 33.552336 -3.020363
2011-08-16 07:01:27 51°17.293 2°52.523 18.3356 4.437566 33.281303 -3.020363
2011-08-16 07:02:27 51°17.496 2°52.534 18.3254 4.433728 33.258052 -3.020363
2011-08-16 07:03:27 51°17.657 2°52.698 18.3129 4.426779 33.209959 -3.020363
2011-08-16 07:04:27 51°17.76 2°52.96 18.2999 4.420763 33.170962 -3.020363
2011-08-16 07:05:28 51°17.896 2°53.19 18.2995 4.422838 33.193479 -3.020363
2011-08-16 07:06:27 51°18.028 2°53.414 18.3012 4.424497 33.208689 -3.020363
2011-08-16 07:07:27 51°18.154 2°53.647 18.3002 4.422112 33.1893 -3.020363
2011-08-16 07:08:27 51°18.249 2°53.917 18.3023 4.41817 33.155578 -3.020363
2011-08-16 07:09:27 51°18.37 2°54.16 18.3043 4.417444 33.148209 -3.020363
2011-08-16 07:10:27 51°18.482 2°54.414 18.3015 4.426675 33.225697 -3.020363
2011-08-16 07:11:27 51°18.587 2°54.675 18.3 4.423045 33.197137 -3.020363
2011-08-16 07:12:27 51°18.681 2°54.946 18.2921 4.421178 33.185294 -3.020363
2011-08-16 07:13:27 51°18.783 2°55.208 18.2921 4.427401 33.241385 -3.020363
2011-08-16 07:14:27 51°18.848 2°55.5 18.2902 4.427401 33.240106 -3.020363
2011-08-16 07:15:27 51°18.927 2°55.781 18.2899 4.577512 34.507669 -3.020363
2011-08-16 07:16:27 51°19.003 2°56.064 18.2873 4.577616 34.509875 -3.020363
2011-08-16 07:17:27 51°19.066 2°56.355 18.2886 4.577823 34.510963 -3.020363
2011-08-16 07:18:27 51°19.156 2°56.63 18.2912 4.577616 34.509875 -3.020363
2011-08-16 07:19:27 51°19.22 2°56.921 18.2913 4.577927 34.51051 -3.020363
2011-08-16 07:20:27 51°19.288 2°57.208 18.2945 4.578134 34.510933 -3.020363
2011-08-16 07:21:27 51°19.379 2°57.477 18.2972 4.578445 34.512233 -3.020363
2011-08-16 07:22:27 51°19.469 2°57.746 18.3032 4.579068 34.514832 -3.020363
2011-08-16 07:23:27 51°19.544 2°58.023 18.3105 4.579587 34.512568 -3.020363
2011-08-16 07:24:27 51°19.609 2°58.307 18.3208 4.580313 34.512721 -3.020363
2011-08-16 07:25:27 51°19.686 2°58.586 18.3327 4.58052 34.506502 -3.020363
2011-08-16 07:26:27 51°19.766 2°58.86 18.3416 4.578445 34.479034 -3.020363
2011-08-16 07:27:27 51°19.854 2°59.125 18.3618 4.574917 34.44132 -3.020363
2011-08-16 07:28:27 51°19.943 2°59.387 18.3856 4.564853 34.337298 -3.020363
2011-08-16 07:29:27 51°20.019 2°59.655 18.4073 4.551261 34.205049 -3.020363
2011-08-16 07:30:27 51°20.085 2°59.926 18.4285 4.528021 33.99123 -3.020363
2011-08-16 07:31:27 51°20.147 3°0.198 18.4383 4.494409 33.693998 -3.020363
2011-08-16 07:32:27 51°20.237 3°0.447 18.4489 4.47304 33.507038 -3.020363
2011-08-16 07:33:27 51°20.31 3°0.705 18.4557 4.435905 33.18706 -3.020363
2011-08-16 07:34:27 51°20.382 3°0.964 18.4621 4.400639 32.888355 -3.020363
2011-08-16 07:35:27 51°20.463 3°1.214 18.4701 4.374296 32.663324 -3.020363
2011-08-16 07:36:27 51°20.531 3°1.473 18.4714 4.357287 32.515181 -3.020363
2011-08-16 07:37:27 51°20.589 3°1.741 18.4669 4.342042 32.388081 -3.020363
2011-08-16 07:38:27 51°20.669 3°1.993 18.4652 4.323065 32.233047 -3.020363
2011-08-16 07:39:28 51°20.746 3°2.255 18.4626 4.301807 32.055434 -3.020363
2011-08-16 07:40:27 51°20.805 3°2.518 18.4584 4.286356 31.929937 -3.020363
2011-08-16 07:41:27 51°20.871 3°2.782 18.4535 4.271632 31.812358 -3.020363
2011-08-16 07:42:27 51°20.949 3°3.038 18.446 4.255457 31.680931 -3.020363
2011-08-16 07:43:27 51°21.022 3°3.294 18.4439 4.240837 31.564298 -3.020363
2011-08-16 07:44:27 51°21.082 3°3.556 18.4424 4.22487 31.434102 -3.020363
2011-08-16 07:45:27 51°21.146 3°3.818 18.4436 4.216265 31.362665 -3.020363
2011-08-16 07:46:27 51°21.203 3°4.085 18.4464 4.214191 31.343655 -3.020363
2011-08-16 07:47:27 51°21.279 3°4.342 18.4512 4.213258 31.334112 -3.020363
2011-08-16 07:48:27 51°21.345 3°4.605 18.452 4.212221 31.321314 -3.020363
2011-08-16 07:49:27 51°21.414 3°4.87 18.4537 4.209526 31.299549 -3.020363
2011-08-16 07:50:27 51°21.464 3°5.149 18.4557 4.207245 31.278832 -3.020363
2011-08-16 07:51:27 51°21.513 3°5.43 18.4612 4.206623 31.270681 -3.020363
2011-08-16 07:52:27 51°21.579 3°5.7 18.4622 4.207141 31.273186 -3.020363
2011-08-16 07:53:27 51°21.632 3°5.982 18.4567 4.207556 31.276625 -3.020363
2011-08-16 07:54:27 51°21.695 3°6.259 18.457 4.207971 31.282458 -3.020363
2011-08-16 07:55:27 51°21.746 3°6.545 18.4487 4.207867 31.284591 -3.020363
2011-08-16 07:56:27 51°21.783 3°6.837 18.4366 4.206934 31.282237 -3.020363
2011-08-16 07:57:27 51°21.815 3°7.128 18.4275 4.208386 31.302067 -3.020363
2011-08-16 07:58:27 51°21.867 3°7.411 18.4201 4.210874 31.331114 -3.020363
2011-08-16 07:59:27 51°21.935 3°7.682 18.4193 4.214296 31.363724 -3.020363
2011-08-16 08:00:27 51°21.995 3°7.955 18.425 4.218961 31.399464 -3.020363
2011-08-16 08:01:27 51°22.041 3°8.235 18.4354 4.223523 31.432538 -3.020363
2011-08-16 08:02:27 51°22.102 3°8.506 18.4425 4.226529 31.450886 -3.020363
2011-08-16 08:03:27 51°22.16 3°8.783 18.4444 4.227877 31.458466 -3.020363
2011-08-16 08:04:27 51°22.221 3°9.056 18.4515 4.230158 31.474998 -3.020363
2011-08-16 08:05:27 51°22.254 3°9.341 18.4546 4.232335 31.487655 -3.020363
2011-08-16 08:06:27 51°22.273 3°9.63 18.4546 4.235549 31.511932 -3.020363
2011-08-16 08:07:27 51°22.307 3°9.918 18.4558 4.237623 31.529151 -3.020363
2011-08-16 08:08:27 51°22.33 3°10.209 18.4569 4.239386 31.541978 -3.020363
2011-08-16 08:09:27 51°22.354 3°10.5 18.4579 4.239282 31.542323 -3.020363
2011-08-16 08:10:27 51°22.384 3°10.791 18.4627 4.237001 31.520366 -3.020363
2011-08-16 08:11:28 51°22.376 3°11.088 18.4664 4.235446 31.504441 -3.020363
2011-08-16 08:12:27 51°22.377 3°11.375 18.4706 4.232853 31.480515 -3.020363
2011-08-16 08:13:28 51°22.383 3°11.674 18.4764 4.230676 31.458834 -3.020363
2011-08-16 08:14:27 51°22.385 3°11.945 18.4784 4.228499 31.436558 -3.020363
2011-08-16 08:15:27 51°22.41 3°12.186 18.4861 4.225803 31.412393 -3.020363
2011-08-16 08:16:27 51°22.442 3°12.423 18.4919 4.2229 31.382913 -3.020363
2011-08-16 08:17:27 51°22.466 3°12.649 18.5001 4.220411 31.357484 -3.020363
2011-08-16 08:18:27 51°22.493 3°12.839 18.5039 4.218649 31.338679 -3.020363
2011-08-16 08:19:27 51°22.516 3°13.024 18.5051 4.219064 31.337327 -3.020363
2011-08-16 08:20:27 51°22.543 3°13.189 18.4966 4.22207 31.364645 -3.020363
2011-08-16 08:21:27 51°22.58 3°13.249 18.4957 4.22207 31.367641 -3.020363
2011-08-16 08:22:28 51°22.622 3°13.24 18.5007 4.221034 31.359046 -3.020363
2011-08-16 08:23:27 51°22.636 3°13.207 18.5031 4.2201 31.348915 -3.020363
2011-08-16 08:24:28 51°22.647 3°13.172 18.5039 4.219997 31.346258 -3.020363
2011-08-16 08:25:27 51°22.654 3°13.138 18.5123 4.219686 31.341884 -3.020363
2011-08-16 08:26:27 51°22.662 3°13.107 18.5195 4.219996 31.338476 -3.020363
2011-08-16 08:27:27 51°22.668 3°13.079 18.5234 4.220515 31.334992 -3.020363
2011-08-16 08:28:28 51°22.674 3°13.052 18.5285 4.220826 31.33697 -3.020363
2011-08-16 08:29:28 51°22.727 3°12.97 18.529 4.221033 31.336893 -3.020363
2011-08-16 08:30:27 51°22.86 3°12.804 18.5276 4.221551 31.340589 -3.020363
2011-08-16 08:31:28 51°23.048 3°12.66 18.5335 4.226839 31.384397 -3.020363
2011-08-16 08:32:27 51°23.232 3°12.509 18.5329 4.237829 31.470672 -3.020363
2011-08-16 08:33:28 51°23.425 3°12.365 18.5309 4.244776 31.528856 -3.020363
2011-08-16 08:34:27 51°23.6 3°12.186 18.5306 4.251205 31.585172 -3.020363
2011-08-16 08:35:27 51°23.763 3°11.965 18.5293 4.254523 31.610879 -3.020363
2011-08-16 08:36:27 51°23.924 3°11.733 18.522 4.257944 31.64228 -3.020363
2011-08-16 08:37:27 51°24.087 3°11.499 18.5215 4.257426 31.643418 -3.020363
2011-08-16 08:38:28 51°24.208 3°11.194 18.5166 4.26147 31.680602 -3.020363
2011-08-16 08:39:27 51°24.26 3°10.841 18.5177 4.272253 31.770116 -3.020363
2011-08-16 08:40:28 51°24.314 3°10.476 18.513 4.279927 31.833225 -3.020363
2011-08-16 08:41:27 51°24.365 3°10.127 18.5115 4.281793 31.85116 -3.020363
2011-08-16 08:42:28 51°24.433 3°9.777 18.5141 4.282312 31.856684 -3.020363
2011-08-16 08:43:27 51°24.495 3°9.436 18.5226 4.285007 31.876644 -3.020363
2011-08-16 08:44:27 51°24.564 3°9.099 18.5281 4.290399 31.915342 -3.020363
2011-08-16 08:45:28 51°24.632 3°8.774 18.5349 4.297762 31.971624 -3.020363
2011-08-16 08:46:27 51°24.72 3°8.479 18.5349 4.309687 32.068272 -3.020363
2011-08-16 08:47:28 51°24.835 3°8.2 18.5402 4.318501 32.138474 -3.020363
2011-08-16 08:48:27 51°24.981 3°7.999 18.5338 4.322027 32.167172 -3.020363
2011-08-16 08:49:27 51°25.16 3°7.951 18.5125 4.319953 32.15607 -3.020363
2011-08-16 08:50:27 51°25.345 3°7.956 18.5049 4.316531 32.138051 -3.020363
2011-08-16 08:51:27 51°25.527 3°8.01 18.5038 4.315287 32.13507 -3.020363
2011-08-16 08:52:27 51°25.699 3°8.11 18.497 4.315183 32.13605 -3.020363
2011-08-16 08:53:27 51°25.871 3°8.206 18.4978 4.316635 32.151815 -3.020363
2011-08-16 08:54:28 51°26.042 3°8.258 18.4901 4.318502 32.171651 -3.020363
2011-08-16 08:55:28 51°26.18 3°8.301 18.4891 4.319331 32.180401 -3.020363
2011-08-16 08:56:27 51°26.304 3°8.337 18.4827 4.318917 32.17941 -3.020363
2011-08-16 08:57:27 51°26.379 3°8.331 18.4828 4.318605 32.179282 -3.020363
2011-08-16 08:58:27 51°26.423 3°8.352 18.4826 4.319228 32.183846 -3.020363
2011-08-16 08:59:27 51°26.442 3°8.361 18.4839 4.320161 32.192846 -3.020363
2011-08-16 09:00:28 51°26.445 3°8.37 18.4866 4.321094 32.198152 -3.020363
2011-08-16 09:01:27 51°26.444 3°8.372 18.4874 4.322442 32.208142 -3.020363
2011-08-16 09:02:28 51°26.441 3°8.37 18.4896 4.323687 32.218501 -3.020363
2011-08-16 09:03:27 51°26.436 3°8.364 18.4903 4.325242 32.230218 -3.020363
2011-08-16 09:04:27 51°26.428 3°8.356 18.4949 4.325864 32.233549 -3.020363
2011-08-16 09:05:28 51°26.425 3°8.342 18.4947 4.327005 32.239346 -3.020363
2011-08-16 09:06:27 51°26.493 3°8.195 18.4978 4.327835 32.248101 -3.020363
2011-08-16 09:07:28 51°26.606 3°7.942 18.5048 4.330635 32.267093 -3.020363
2011-08-16 09:08:27 51°26.708 3°7.666 18.5088 4.334264 32.292988 -3.020363
2011-08-16 09:09:27 51°26.815 3°7.387 18.5092 4.338205 32.322087 -3.020363
2011-08-16 09:10:27 51°26.934 3°7.124 18.5065 4.341627 32.350578 -3.020363
2011-08-16 09:11:27 51°27.029 3°6.83 18.515 4.345049 32.380311 -3.020363
2011-08-16 09:12:28 51°27.123 3°6.528 18.5187 4.34702 32.391148 -3.020363
2011-08-16 09:13:27 51°27.224 3°6.244 18.5254 4.346708 32.383607 -3.020363
2011-08-16 09:14:28 51°27.332 3°5.953 18.526 4.344842 32.365594 -3.020363
2011-08-16 09:15:27 51°27.43 3°5.661 18.5291 4.343286 32.35141 -3.020363
2011-08-16 09:16:27 51°27.534 3°5.368 18.5265 4.34619 32.374342 -3.020363
2011-08-16 09:17:27 51°27.643 3°5.082 18.5147 4.345982 32.375708 -3.020363
2011-08-16 09:18:28 51°27.755 3°4.79 18.5052 4.339657 32.332938 -3.020363
2011-08-16 09:19:27 51°27.857 3°4.498 18.5057 4.336649 32.312844 -3.020363
2011-08-16 09:20:27 51°27.979 3°4.221 18.5089 4.336027 32.307046 -3.020363
2011-08-16 09:21:28 51°28.098 3°3.932 18.512 4.336546 32.308893 -3.020363
2011-08-16 09:22:27 51°28.194 3°3.711 18.5129 4.337686 32.315918 -3.020363
2011-08-16 09:23:28 51°28.248 3°3.549 18.5172 4.338723 32.323933 -3.020363
2011-08-16 09:24:27 51°28.271 3°3.461 18.5156 4.341005 32.339835 -3.020363
2011-08-16 09:25:27 51°28.263 3°3.425 18.5165 4.342249 32.349576 -3.020363
2011-08-16 09:26:27 51°28.254 3°3.395 18.5172 4.342975 32.356238 -3.020363
2011-08-16 09:27:27 51°28.245 3°3.37 18.5167 4.34339 32.359691 -3.020363
2011-08-16 09:28:27 51°28.234 3°3.348 18.5176 4.343805 32.361908 -3.020363
2011-08-16 09:29:27 51°28.223 3°3.325 18.5196 4.344012 32.363634 -3.020363
2011-08-16 09:30:27 51°28.215 3°3.3 18.5182 4.344116 32.365116 -3.020363
2011-08-16 09:31:27 51°28.213 3°3.192 18.5204 4.34422 32.365979 -3.020363
2011-08-16 09:32:27 51°28.155 3°2.909 18.5229 4.344323 32.363132 -3.020363
2011-08-16 09:33:27 51°28.094 3°2.549 18.5297 4.344634 32.363249 -3.020363
2011-08-16 09:34:27 51°28.038 3°2.183 18.5314 4.346916 32.378529 -3.020363
2011-08-16 09:35:27 51°27.965 3°1.821 18.5288 4.35376 32.434267 -3.020363
2011-08-16 09:36:27 51°27.913 3°1.45 18.5303 4.359049 32.479544 -3.020363
2011-08-16 09:37:27 51°27.84 3°1.083 18.5334 4.360916 32.492606 -3.020363
2011-08-16 09:38:27 51°27.784 3°0.71 18.5261 4.359983 32.484834 -3.020363
2011-08-16 09:39:27 51°27.729 3°0.337 18.5168 4.358116 32.476114 -3.020363
2011-08-16 09:40:27 51°27.659 2°59.97 18.5159 4.36185 32.512178 -3.020363
2011-08-16 09:41:27 51°27.596 2°59.602 18.5228 4.366932 32.555138 -3.020363
2011-08-16 09:42:27 51°27.533 2°59.237 18.5242 4.377095 32.633604 -3.020363
2011-08-16 09:43:27 51°27.459 2°58.876 18.5221 4.390785 32.748977 -3.020363
2011-08-16 09:44:27 51°27.401 2°58.51 18.5148 4.40292 32.85207 -3.020363
2011-08-16 09:45:27 51°27.334 2°58.148 18.5087 4.413188 32.94153 -3.020363
2011-08-16 09:46:27 51°27.267 2°57.787 18.5083 4.423872 33.035774 -3.020363
2011-08-16 09:47:27 51°27.214 2°57.419 18.5072 4.431755 33.102887 -3.020363
2011-08-16 09:48:27 51°27.146 2°57.055 18.5215 4.430717 33.092323 -3.020363
2011-08-16 09:49:27 51°27.086 2°56.688 18.5302 4.427294 33.052356 -3.020363
2011-08-16 09:50:27 51°27.01 2°56.323 18.5319 4.43051 33.074781 -3.020363
2011-08-16 09:51:27 51°26.926 2°55.96 18.5281 4.439326 33.144608 -3.020363
2011-08-16 09:52:27 51°26.845 2°55.601 18.5083 4.451462 33.254882 -3.020363
2011-08-16 09:53:27 51°26.777 2°55.237 18.4864 4.459035 33.334108 -3.020363
2011-08-16 09:54:27 51°26.699 2°54.875 18.4803 4.46474 33.396525 -3.020363
2011-08-16 09:55:27 51°26.636 2°54.504 18.5007 4.467126 33.416494 -3.020363
2011-08-16 09:56:27 51°26.566 2°54.135 18.5052 4.466918 33.398779 -3.020363
2011-08-16 09:57:27 51°26.493 2°53.775 18.4823 4.467852 33.411063 -3.020363
2011-08-16 09:58:27 51°26.439 2°53.409 18.4633 4.467645 33.424674 -3.020363
2011-08-16 09:59:27 51°26.376 2°53.044 18.4471 4.467853 33.443695 -3.020363
2011-08-16 10:00:27 51°26.315 2°52.675 18.4441 4.467853 33.451383 -3.020363
2011-08-16 10:01:27 51°26.263 2°52.302 18.4518 4.467853 33.453306 -3.020363
2011-08-16 10:02:27 51°26.199 2°51.934 18.4653 4.467334 33.441272 -3.020363
2011-08-16 10:03:27 51°26.142 2°51.564 18.4604 4.469305 33.450093 -3.020363
2011-08-16 10:04:27 51°26.084 2°51.197 18.4499 4.473662 33.492998 -3.020363
2011-08-16 10:05:27 51°26.037 2°50.824 18.4428 4.478434 33.540689 -3.020363
2011-08-16 10:06:27 51°25.99 2°50.452 18.4409 4.482168 33.576495 -3.020363
2011-08-16 10:07:27 51°25.95 2°50.077 18.4496 4.484554 33.595212 -3.020363
2011-08-16 10:08:27 51°25.92 2°49.701 18.4537 4.487873 33.617892 -3.020363
2011-08-16 10:09:27 51°25.881 2°49.371 18.4543 4.493371 33.660124 -3.020363
2011-08-16 10:10:27 51°25.876 2°49.143 18.4512 4.499492 33.711449 -3.020363
2011-08-16 10:11:27 51°25.912 2°48.96 18.4449 4.503745 33.74971 -3.020363
2011-08-16 10:12:27 51°25.962 2°48.796 18.4308 4.509762 33.80602 -3.020363
2011-08-16 10:13:27 51°25.998 2°48.653 18.4127 4.515572 33.867113 -3.020363
2011-08-16 10:14:27 51°26.017 2°48.54 18.3855 4.519929 33.920615 -3.020363
2011-08-16 10:15:27 51°26.012 2°48.496 18.3138 4.526051 34.004679 -3.020363
2011-08-16 10:16:27 51°26.005 2°48.471 18.3188 4.526363 34.038684 -3.020363
2011-08-16 10:17:27 51°25.998 2°48.451 18.313 4.526259 34.038465 -3.020363
2011-08-16 10:18:27 51°25.99 2°48.434 18.3225 4.526155 34.038246 -3.020363
2011-08-16 10:19:29 51°25.982 2°48.417 18.3156 4.526778 34.044143 -3.020363
2011-08-16 10:20:30 51°25.973 2°48.401 18.3214 4.527192 34.041746 -3.020363
2011-08-16 10:21:28 51°25.965 2°48.388 18.3148 4.526259 34.037156 -3.020363
2011-08-16 10:22:28 51°25.956 2°48.375 18.3234 4.526985 34.034109 -3.020363
2011-08-16 10:23:27 51°25.947 2°48.36 18.3256 4.527711 34.04415 -3.020363
2011-08-16 10:24:27 51°25.954 2°48.311 18.3165 4.52823 34.041973 -3.020363
2011-08-16 10:25:27 51°25.931 2°48.159 18.3111 4.527089 34.047419 -3.020363
2011-08-16 10:26:27 51°25.843 2°47.902 18.3108 4.527193 34.050912 -3.020363
2011-08-16 10:27:27 51°25.721 2°47.596 18.3143 4.527919 34.055719 -3.020363
2011-08-16 10:28:27 51°25.61 2°47.278 18.3105 4.529475 34.06424 -3.020363
2011-08-16 10:29:27 51°25.496 2°46.966 18.3097 4.530927 34.079094 -3.020363
2011-08-16 10:30:28 51°25.384 2°46.642 18.3059 4.532691 34.097229 -3.020363
2011-08-16 10:31:28 51°25.271 2°46.328 18.2994 4.534144 34.114058 -3.020363
2011-08-16 10:32:28 51°25.151 2°46.018 18.3024 4.5357 34.127171 -3.020363
2011-08-16 10:33:28 51°25.037 2°45.702 18.2941 4.537152 34.142038 -3.020363
2011-08-16 10:34:28 51°24.926 2°45.384 18.2906 4.538916 34.160189 -3.020363
2011-08-16 10:35:28 51°24.808 2°45.067 18.2813 4.54068 34.180317 -3.020363
2011-08-16 10:36:28 51°24.689 2°44.752 18.2809 4.542651 34.200887 -3.020363
2011-08-16 10:37:28 51°24.581 2°44.428 18.2667 4.545141 34.225178 -3.020363
2011-08-16 10:38:28 51°24.468 2°44.107 18.2604 4.547424 34.253003 -3.020363
2011-08-16 10:39:28 51°24.358 2°43.781 18.2568 4.548461 34.276279 -3.020363
2011-08-16 10:40:28 51°24.239 2°43.464 18.2548 4.548773 34.284191 -3.020363
2011-08-16 10:41:28 51°24.128 2°43.14 18.243 4.550122 34.301527 -3.020363
2011-08-16 10:42:28 51°24.021 2°42.816 18.2312 4.551056 34.320659 -3.020363
2011-08-16 10:43:28 51°23.901 2°42.505 18.2141 4.552093 34.340019 -3.020363
2011-08-16 10:44:28 51°23.791 2°42.185 18.2001 4.552923 34.355649 -3.020363
2011-08-16 10:45:28 51°23.675 2°41.874 18.1845 4.55365 34.3724 -3.020363
2011-08-16 10:46:28 51°23.57 2°41.553 18.1656 4.554169 34.392057 -3.020363
2011-08-16 10:47:28 51°23.471 2°41.226 18.1547 4.554273 34.407555 -3.020363
2011-08-16 10:48:28 51°23.366 2°40.908 18.1356 4.554377 34.422403 -3.020363
2011-08-16 10:49:28 51°23.26 2°40.591 18.1233 4.553858 34.433989 -3.020363
2011-08-16 10:50:28 51°23.166 2°40.266 18.1169 4.552925 34.43274 -3.020363
2011-08-16 10:51:28 51°23.071 2°39.941 18.1053 4.551887 34.432611 -3.020363
2011-08-16 10:52:28 51°23.002 2°39.599 18.0967 4.551058 34.430242 -3.020363
2011-08-16 10:53:28 51°22.915 2°39.264 18.0924 4.550331 34.428752 -3.020363
2011-08-16 10:54:28 51°22.831 2°38.926 18.0858 4.549709 34.430142 -3.020363
2011-08-16 10:55:28 51°22.754 2°38.586 18.0767 4.549087 34.432199 -3.020363
2011-08-16 10:56:28 51°22.692 2°38.239 18.0632 4.548568 34.433804 -3.020363
2011-08-16 10:57:28 51°22.626 2°37.893 18.0436 4.547946 34.441871 -3.020363
2011-08-16 10:58:28 51°22.553 2°37.553 18.0206 4.54722 34.452405 -3.020363
2011-08-16 10:59:28 51°22.487 2°37.209 18.0071 4.546701 34.462707 -3.020363
2011-08-16 11:00:28 51°22.415 2°36.869 17.9947 4.546598 34.475206 -3.020363
2011-08-16 11:01:28 51°22.311 2°36.551 17.9859 4.546494 34.484367 -3.020363
2011-08-16 11:02:28 51°22.207 2°36.234 17.9766 4.546391 34.492863 -3.020363
2011-08-16 11:03:28 51°22.107 2°35.916 17.9803 4.546287 34.496002 -3.020363
2011-08-16 11:04:28 51°21.991 2°35.611 17.9769 4.546494 34.497096 -3.020363
2011-08-16 11:05:28 51°21.878 2°35.308 17.9757 4.546702 34.49886 -3.020363
2011-08-16 11:06:28 51°21.736 2°35.036 17.9796 4.546495 34.501118 -3.020363
2011-08-16 11:07:28 51°21.591 2°34.765 17.9854 4.546806 34.500412 -3.020363
2011-08-16 11:08:28 51°21.465 2°34.476 17.9791 4.547221 34.501929 -3.020363
2011-08-16 11:09:28 51°21.341 2°34.182 17.9908 4.547428 34.503692 -3.020363
2011-08-16 11:10:28 51°21.21 2°33.898 17.9873 4.547947 34.50408 -3.020363
2011-08-16 11:11:28 51°21.073 2°33.619 17.9915 4.548154 34.503163 -3.020363
2011-08-16 11:12:28 51°20.953 2°33.323 17.991 4.548465 34.503127 -3.020363
2011-08-16 11:13:28 51°20.818 2°33.041 17.9969 4.548154 34.499812 -3.020363
2011-08-16 11:14:28 51°20.679 2°32.762 18.0037 4.548777 34.499742 -3.020363
2011-08-16 11:15:28 51°20.554 2°32.469 18.003 4.54888 34.498614 -3.020363
2011-08-16 11:16:28 51°20.429 2°32.176 18.0029 4.548673 34.496181 -3.020363
2011-08-16 11:17:28 51°20.3 2°31.886 18.0109 4.54888 34.493926 -3.020363
2011-08-16 11:18:28 51°20.165 2°31.604 18.0087 4.549503 34.495196 -3.020363
2011-08-16 11:19:28 51°20.062 2°31.296 17.9936 4.549192 34.49657 -3.020363
2011-08-16 11:20:28 51°20.002 2°30.965 17.9895 4.547947 34.496039 -3.020363
2011-08-16 11:21:28 51°19.935 2°30.639 17.9727 4.546806 34.49505 -3.020363
2011-08-16 11:22:28 51°19.861 2°30.329 17.9848 4.544835 34.489017 -3.020363
2011-08-16 11:23:28 51°19.843 2°30.157 17.9745 4.544938 34.486548 -3.020363
2011-08-16 11:24:28 51°19.891 2°30.085 17.9737 4.544938 34.485208 -3.020363
2011-08-16 11:25:28 51°19.949 2°30.011 17.9776 4.544938 34.486548 -3.020363
2011-08-16 11:26:28 51°19.992 2°29.986 17.9792 4.545249 34.486514 -3.020363
2011-08-16 11:27:28 51°20.004 2°29.994 17.9755 4.545146 34.484292 -3.020363
2011-08-16 11:28:28 51°20.015 2°30.007 17.9789 4.544834 34.483656 -3.020363
2011-08-16 11:29:28 51°20.023 2°30.019 17.983 4.544834 34.482986 -3.020363
2011-08-16 11:30:28 51°20.027 2°30.03 17.9864 4.544834 34.480307 -3.020363
2011-08-16 11:31:28 51°20.031 2°30.041 17.9833 4.544938 34.480518 -3.020363
2011-08-16 11:32:28 51°20.032 2°30.055 17.9885 4.545042 34.480061 -3.020363
2011-08-16 11:33:28 51°20.034 2°30.069 17.9944 4.545249 34.479815 -3.020363
2011-08-16 11:34:28 51°20.048 2°30.074 18.0034 4.545872 34.479077 -3.020363
2011-08-16 11:35:28 51°20.092 2°30.152 17.9959 4.546494 34.47968 -3.020363
2011-08-16 11:36:28 51°20.036 2°30.349 17.9915 4.545768 34.478865 -3.020363
2011-08-16 11:37:28 51°19.935 2°30.645 18.0006 4.545768 34.47284 -3.020363
2011-08-16 11:38:28 51°19.804 2°30.919 17.9976 4.545768 34.468156 -3.020363
2011-08-16 11:39:28 51°19.676 2°31.195 18.007 4.545249 34.466426 -3.020363
2011-08-16 11:40:28 51°19.535 2°31.454 18.0241 4.545872 34.468368 -3.020363
2011-08-16 11:41:28 51°19.393 2°31.71 18.0405 4.547013 34.462006 -3.020363
2011-08-16 11:42:28 51°19.248 2°31.964 18.0631 4.54805 34.451432 -3.020363
2011-08-16 11:43:28 51°19.109 2°32.227 18.0561 4.548672 34.445362 -3.020363
2011-08-16 11:44:28 51°18.974 2°32.493 18.0578 4.549398 34.448852 -3.020363
2011-08-16 11:45:28 51°18.833 2°32.75 18.058 4.549398 34.448852 -3.020363
2011-08-16 11:46:28 51°18.7 2°33.018 18.0615 4.549087 34.448882 -3.020363
2011-08-16 11:47:28 51°18.565 2°33.285 18.0887 4.548983 34.443997 -3.020363
2011-08-16 11:48:28 51°18.433 2°33.558 18.1124 4.549813 34.43569 -3.020363
2011-08-16 11:49:28 51°18.298 2°33.832 18.1096 4.551369 34.434213 -3.020363
2011-08-16 11:50:28 51°18.159 2°34.095 18.1037 4.552302 34.436794 -3.020363
2011-08-16 11:51:28 51°18.011 2°34.346 18.0997 4.552199 34.439915 -3.020363
2011-08-16 11:52:28 51°17.856 2°34.581 18.1089 4.552614 34.442098 -3.020363
2011-08-16 11:53:28 51°17.706 2°34.826 18.1064 4.553962 34.450196 -3.020363
2011-08-16 11:54:28 51°17.544 2°35.058 18.0978 4.553548 34.453347 -3.020363
2011-08-16 11:55:28 51°17.391 2°35.311 18.0958 4.553236 34.454044 -3.020363
2011-08-16 11:56:28 51°17.227 2°35.552 18.1023 4.553548 34.456015 -3.020363
2011-08-16 11:57:28 51°17.056 2°35.773 18.1177 4.553963 34.454864 -3.020363
2011-08-16 11:58:28 51°16.886 2°35.992 18.1304 4.555311 34.453625 -3.020363
2011-08-16 11:59:28 51°16.726 2°36.224 18.1108 4.556452 34.458628 -3.020363
2011-08-16 12:00:28 51°16.574 2°36.448 18.0953 4.555207 34.46008 -3.020363
2011-08-16 12:01:28 51°16.555 2°36.618 18.0981 4.553236 34.455378 -3.020363
2011-08-16 12:02:28 51°16.577 2°36.719 18.1149 4.553236 34.452043 -3.020363
2011-08-16 12:03:28 51°16.588 2°36.805 18.1274 4.554585 34.450137 -3.020363
2011-08-16 12:04:28 51°16.586 2°36.83 18.1356 4.55583 34.452021 -3.020363
2011-08-16 12:05:28 51°16.585 2°36.856 18.1398 4.55666 34.451722 -3.020363
2011-08-16 12:06:28 51°16.584 2°36.887 18.1505 4.55749 34.454088 -3.020363
2011-08-16 12:07:28 51°16.584 2°36.921 18.1705 4.558631 34.454427 -3.020363
2011-08-16 12:08:28 51°16.585 2°36.957 18.1823 4.560705 34.456012 -3.020363
2011-08-16 12:09:28 51°16.586 2°36.995 18.1844 4.561846 34.457684 -3.020363
2011-08-16 12:10:28 51°16.587 2°37.034 18.1974 4.562261 34.457868 -3.020363
2011-08-16 12:11:28 51°16.589 2°37.072 18.2124 4.563506 34.455761 -3.020363
2011-08-16 12:12:28 51°16.59 2°37.111 18.2309 4.56527 34.456713 -3.020363
2011-08-16 12:13:28 51°16.587 2°37.159 18.2516 4.567137 34.45655 -3.020363
2011-08-16 12:14:28 51°16.517 2°37.303 18.2815 4.569419 34.455247 -3.020363
2011-08-16 12:15:28 51°16.406 2°37.589 18.2942 4.57222 34.457667 -3.020363
2011-08-16 12:16:28 51°16.29 2°37.885 18.2757 4.572739 34.45873 -3.020363
2011-08-16 12:17:28 51°16.16 2°38.18 18.2397 4.570249 34.454292 -3.020363
2011-08-16 12:18:28 51°16.049 2°38.501 18.2632 4.567344 34.449003 -3.020363
2011-08-16 12:19:28 51°15.924 2°38.806 18.2887 4.569315 34.447069 -3.020363
2011-08-16 12:20:28 51°15.796 2°39.101 18.3487 4.572531 34.437087 -3.020363
2011-08-16 12:21:28 51°15.678 2°39.402 18.3556 4.576992 34.444252 -3.020363
2011-08-16 12:22:28 51°15.54 2°39.673 18.3262 4.577096 34.445126 -3.020363
2011-08-16 12:23:28 51°15.403 2°39.945 18.3116 4.574502 34.448419 -3.020363
2011-08-16 12:24:28 51°15.275 2°40.233 18.3142 4.572739 34.443477 -3.020363
2011-08-16 12:25:28 51°15.141 2°40.514 18.3405 4.573672 34.442078 -3.020363
2011-08-16 12:26:28 51°15.009 2°40.803 18.3506 4.575436 34.439735 -3.020363
2011-08-16 12:27:28 51°14.868 2°41.079 18.3682 4.577407 34.442455 -3.020363
2011-08-16 12:28:28 51°14.743 2°41.374 18.3802 4.578963 34.443 -3.020363
2011-08-16 12:29:28 51°14.611 2°41.662 18.4014 4.580104 34.441373 -3.020363
2011-08-16 12:30:28 51°14.482 2°41.953 18.4261 4.581556 34.439064 -3.020363
2011-08-16 12:31:28 51°14.303 2°42.113 18.4595 4.58166 34.415501 -3.020363
2011-08-16 12:32:28 51°14.111 2°42.069 18.4695 4.587262 34.43427 -3.020363
2011-08-16 12:33:28 51°13.917 2°42.027 18.466 4.587677 34.437101 -3.020363
2011-08-16 12:34:28 51°13.721 2°42 18.4587 4.586847 34.433418 -3.020363
2011-08-16 12:35:28 51°13.523 2°41.981 18.4931 4.585809 34.418755 -3.020363
2011-08-16 12:36:28 51°13.326 2°41.964 18.5244 4.587988 34.410058 -3.020363
2011-08-16 12:37:28 51°13.128 2°41.961 18.5305 4.590478 34.416497 -3.020363
2011-08-16 12:38:28 51°12.93 2°41.95 18.52 4.593071 34.427753 -3.020363
2011-08-16 12:39:28 51°12.732 2°41.939 18.5055 4.592553 34.437224 -3.020363
2011-08-16 12:40:28 51°12.535 2°41.936 18.4998 4.591412 34.436198 -3.020363
2011-08-16 12:41:28 51°12.338 2°41.939 18.5093 4.590789 34.43492 -3.020363
2011-08-16 12:42:28 51°12.144 2°41.925 18.5056 4.5911 34.430288 -3.020363
2011-08-16 12:43:28 51°11.954 2°41.863 18.5054 4.589337 34.417442 -3.020363
2011-08-16 12:44:28 51°11.777 2°41.76 18.5174 4.587158 34.40045 -3.020363
2011-08-16 12:45:28 51°11.59 2°41.711 18.5558 4.585705 34.377062 -3.020363
2011-08-16 12:46:28 51°11.395 2°41.76 18.5712 4.588194 34.361177 -3.020363
2011-08-16 12:47:28 51°11.199 2°41.785 18.5545 4.588091 34.35965 -3.020363
2011-08-16 12:48:28 51°11.061 2°41.865 18.5871 4.586431 34.353596 -3.020363
2011-08-16 12:49:28 51°11.045 2°42.007 18.6385 4.590061 34.346015 -3.020363
2011-08-16 12:50:28 51°11.08 2°42.114 18.6458 4.594211 34.353938 -3.020363
2011-08-16 12:51:29 51°11.085 2°42.166 18.6466 4.595353 34.356951 -3.020363
2011-08-16 12:52:29 51°11.088 2°42.213 18.647 4.595664 34.358249 -3.020363
2011-08-16 12:53:28 51°11.094 2°42.261 18.6437 4.59556 34.35869 -3.020363
2011-08-16 12:54:28 51°11.1 2°42.311 18.6482 4.59556 34.358035 -3.020363
2011-08-16 12:55:28 51°11.108 2°42.364 18.6498 4.595768 34.359118 -3.020363
2011-08-16 12:56:28 51°11.121 2°42.431 18.662 4.596597 34.35756 -3.020363
2011-08-16 12:57:28 51°11.216 2°42.58 18.6432 4.597012 34.359726 -3.020363
2011-08-16 12:58:28 51°11.398 2°42.791 18.634 4.59556 34.360655 -3.020363
2011-08-16 12:59:28 51°11.591 2°43.002 18.6225 4.594419 34.358297 -3.020363
2011-08-16 13:00:28 51°11.776 2°43.237 18.6004 4.592759 34.355522 -3.020363
2011-08-16 13:01:28 51°11.962 2°43.464 18.5869 4.590165 34.352785 -3.020363
2011-08-16 13:02:28 51°12.161 2°43.661 18.5649 4.587987 34.34697 -3.020363
2011-08-16 13:03:28 51°12.351 2°43.892 18.5606 4.58643 34.344409 -3.020363
2011-08-16 13:04:28 51°12.535 2°44.134 18.5499 4.585186 34.339866 -3.020363
2011-08-16 13:05:28 51°12.73 2°44.353 18.5543 4.584459 34.33902 -3.020363
2011-08-16 13:06:28 51°12.918 2°44.593 18.5665 4.585082 34.339651 -3.020363
2011-08-16 13:07:28 51°13.114 2°44.813 18.5716 4.586742 34.345708 -3.020363
2011-08-16 13:08:28 51°13.309 2°45.028 18.576 4.588713 34.355686 -3.020363
2011-08-16 13:09:28 51°13.495 2°45.254 18.5732 4.589543 34.363962 -3.020363
2011-08-16 13:10:28 51°13.675 2°45.489 18.5595 4.589128 34.36967 -3.020363
2011-08-16 13:11:28 51°13.869 2°45.692 18.5409 4.588817 34.374938 -3.020363
2011-08-16 13:12:28 51°14.055 2°45.924 18.518 4.588195 34.382853 -3.020363
2011-08-16 13:13:28 51°14.244 2°46.153 18.4934 4.587158 34.39321 -3.020363
2011-08-16 13:14:28 51°14.432 2°46.384 18.4641 4.585187 34.399025 -3.020363
2011-08-16 13:15:28 51°14.619 2°46.616 18.4369 4.582697 34.399828 -3.020363
2011-08-16 13:16:28 51°14.796 2°46.867 18.4362 4.580207 34.397999 -3.020363
2011-08-16 13:17:28 51°14.986 2°47.081 18.4227 4.578651 34.394135 -3.020363
2011-08-16 13:18:28 51°15.17 2°47.313 18.4162 4.589649 34.490027 -3.020363
2011-08-16 13:19:28 51°15.359 2°47.536 18.4203 4.589027 34.490078 -3.020363
2011-08-16 13:20:28 51°15.538 2°47.786 18.4163 4.589027 34.488754 -3.020363
2011-08-16 13:21:28 51°15.724 2°48.021 18.4177 4.588923 34.486557 -3.020363
2011-08-16 13:22:28 51°15.912 2°48.264 18.4381 4.589338 34.486083 -3.020363
2011-08-16 13:23:28 51°16.106 2°48.491 18.4658 4.591413 34.484377 -3.020363
2011-08-16 13:24:28 51°16.3 2°48.726 18.4515 4.59328 34.488197 -3.020363
2011-08-16 13:25:28 51°16.491 2°48.97 18.4448 4.59245 34.489804 -3.020363
2011-08-16 13:26:28 51°16.69 2°49.197 18.4505 4.59245 34.491787 -3.020363
2011-08-16 13:27:28 51°16.883 2°49.433 18.4165 4.592969 34.500782 -3.020363
2011-08-16 13:28:27 51°14.598 2°49.572 21.3291 0.075096 0.375597 -3.020363
2011-08-16 13:28:28 51°17.08 2°49.655 18.4015 4.590687 34.506708 -3.020363
2011-08-16 13:29:28 51°17.277 2°49.869 18.413 4.588508 34.492988 -3.020363
2011-08-16 13:30:28 51°17.472 2°50.09 18.4326 4.589753 34.495533 -3.020363
2011-08-16 13:31:28 51°17.66 2°50.325 18.4564 4.592658 34.502792 -3.020363
2011-08-16 13:32:28 51°17.857 2°50.536 18.5728 4.59411 34.495842 -3.020363
2011-08-16 13:33:28 51°18.061 2°50.73 18.7087 4.584873 34.288785 -3.020363
2011-08-16 13:34:28 51°18.248 2°50.923 18.7244 4.56547 34.054204 -3.020363
2011-08-16 13:35:28 51°18.381 2°51.01 18.782 4.543371 33.855486 -3.020363
2011-08-16 13:36:28 51°18.461 2°51.037 18.8352 4.528742 33.678415 -3.020363
2011-08-16 13:37:28 51°18.501 2°51.061 18.8228 4.519923 33.575078 -3.020363
2011-08-16 13:38:32 51°18.517 2°51.108 18.7844 4.517226 33.566008 -3.020363
2011-08-16 13:39:30 51°18.533 2°51.148 18.7617 4.516293 33.58371 -3.020363
2011-08-16 13:40:29 51°18.551 2°51.189 18.7408 4.515671 33.595742 -3.020363
2011-08-16 13:41:28 51°18.571 2°51.233 18.7293 4.51453 33.607935 -3.020363
2011-08-16 13:42:28 51°18.614 2°51.359 18.7318 4.511418 33.583278 -3.020363
2011-08-16 13:43:28 51°18.528 2°51.548 18.7352 4.508824 33.53809 -3.020363
2011-08-16 13:44:28 51°18.366 2°51.745 18.6855 4.508202 33.557757 -3.020363
2011-08-16 13:45:28 51°18.192 2°51.92 18.696 4.50592 33.574474 -3.020363
2011-08-16 13:46:28 51°18.021 2°52.106 18.7433 4.512767 33.609845 -3.020363
2011-08-16 13:47:28 51°17.854 2°52.303 18.7152 4.535175 33.769777 -3.020363
2011-08-16 13:48:28 51°17.689 2°52.5 18.6337 4.559868 34.01193 -3.020363
2011-08-16 13:49:28 51°17.519 2°52.686 18.5995 4.576573 34.210112 -3.020363
2011-08-16 13:50:28 51°17.353 2°52.884 18.554 4.588817 34.348686 -3.020363
2011-08-16 13:51:28 51°17.182 2°53.063 18.5436 4.595665 34.425188 -3.020363
2011-08-16 13:52:28 51°17.012 2°53.249 18.518 4.599401 34.475646 -3.020363
2011-08-16 13:53:28 51°16.845 2°53.44 18.5202 4.600853 34.495763 -3.020363
2011-08-16 13:54:28 51°16.672 2°53.624 18.5232 4.601684 34.507357 -3.020363
2011-08-16 13:55:28 51°16.494 2°53.792 18.5227 4.60158 34.501865 -3.020363
2011-08-16 13:56:28 51°16.321 2°53.981 18.5277 4.601061 34.499485 -3.020363
2011-08-16 13:57:28 51°16.168 2°54.132 18.5392 4.601995 34.500734 -3.020363
2011-08-16 13:58:28 51°16.151 2°54.282 18.5457 4.602825 34.503091 -3.020363
2011-08-16 13:59:28 51°16.204 2°54.378 18.5565 4.603862 34.503892 -3.020363
2011-08-16 14:00:28 51°16.251 2°54.415 18.5591 4.604485 34.503186 -3.020363
2011-08-16 14:01:29 51°16.266 2°54.459 18.5639 4.6049 34.502716 -3.020363
2011-08-16 14:02:31 51°16.282 2°54.505 18.5641 4.605315 34.502905 -3.020363
2011-08-16 14:03:29 51°16.298 2°54.548 18.5616 4.605315 34.502905 -3.020363
2011-08-16 14:04:28 51°16.313 2°54.594 18.5629 4.605211 34.50467 -3.020363
2011-08-16 14:05:28 51°16.329 2°54.642 18.5622 4.605211 34.50467 -3.020363
2011-08-16 14:06:28 51°16.338 2°54.769 18.5886 4.605522 34.503988 -3.020363
2011-08-16 14:07:28 51°16.242 2°54.815 18.5818 4.607389 34.503193 -3.020363
2011-08-16 14:08:28 51°16.109 2°54.834 18.5951 4.607182 34.500792 -3.020363
2011-08-16 14:09:28 51°15.969 2°54.852 18.6006 4.607804 34.496797 -3.020363
2011-08-16 14:10:28 51°15.796 2°54.866 18.6171 4.608115 34.491509 -3.020363
2011-08-16 14:11:28 51°15.603 2°54.873 18.62 4.607804 34.477058 -3.020363
2011-08-16 14:12:28 51°15.411 2°54.88 18.6297 4.606455 34.463118 -3.020363
2011-08-16 14:13:28 51°15.218 2°54.893 18.6588 4.604068 34.432604 -3.020363
2011-08-16 14:14:28 51°15.029 2°54.911 18.681 4.603964 34.406813 -3.020363
2011-08-16 14:15:28 51°14.84 2°54.939 18.9232 0.110571 0.627465 -3.020363
2011-08-16 14:16:28 51°14.651 2°55.009 19.0096 0.078799 0.44119 -3.020363
2011-08-16 14:17:28 51°14.464 2°55.113 19.0952 0.069751 0.388724 -3.020363
2011-08-16 14:18:28 51°14.323 2°55.249 19.1773 0.065741 0.365471 -3.020363
2011-08-16 14:19:28 51°14.215 2°55.346 19.2519 0.062759 0.348188 -3.020363
2011-08-16 14:20:28 51°14.119 2°55.42 19.3298 0.05988 0.331537 -3.020363
2011-08-16 14:21:28 51°14.035 2°55.481 19.3716 0.057927 0.320217 -3.020363
2011-08-16 14:22:28 51°13.948 2°55.543 19.4458 0.056179 0.310094 -3.020363
2011-08-16 14:23:28 51°13.857 2°55.607 19.5157 0.054534 0.300566 -3.020363
2011-08-16 14:24:28 51°13.777 2°55.683 19.5698 0.05258 0.289324 -3.020363
2011-08-16 14:25:32 51°13.717 2°55.781 19.6416 0.050935 0.279847 -3.020363
2011-08-16 14:26:32 51°13.674 2°55.871 19.7224 0.049496 0.271556 -3.020363
2011-08-16 14:27:31 51°13.649 2°55.952 19.7907 0.048262 0.264442 -3.020363
2011-08-16 14:28:32 51°13.642 2°56 19.873 0.04744 0.259647 -3.020363
2011-08-16 14:29:32 51°13.639 2°56.01 19.9515 0.046206 0.252573 -3.020363